createdAt,value
2022-11-18T00:01:38.933Z,62.77
2022-11-18T00:04:07.104Z,63.51
2022-11-18T00:06:35.214Z,62.84
2022-11-18T00:09:03.394Z,62.49
2022-11-18T00:11:49.024Z,61.99
2022-11-18T00:14:23.411Z,60.46
2022-11-18T00:16:53.635Z,61.72
2022-11-18T00:19:22.773Z,62.67
2022-11-18T00:21:50.998Z,63.32
2022-11-18T00:24:19.369Z,61.42
2022-11-18T00:26:47.551Z,62.35
2022-11-18T00:29:16.472Z,61.97
2022-11-18T00:31:46.438Z,63.02
2022-11-18T00:34:15.467Z,62.46
2022-11-18T00:36:44.605Z,61.94
2022-11-18T00:39:13.364Z,63.48
2022-11-18T00:41:59.156Z,62.98
2022-11-18T00:44:27.413Z,62.62
2022-11-18T00:46:57.130Z,62.73
2022-11-18T00:49:25.677Z,62.71
2022-11-18T00:51:53.796Z,62.02
2022-11-18T00:54:22.326Z,63.43
2022-11-18T00:56:50.376Z,63.32
2022-11-18T00:59:18.695Z,61.92
2022-11-18T01:01:47.114Z,61.73
2022-11-18T01:04:16.742Z,62.24
2022-11-18T01:06:46.945Z,63.03
2022-11-18T01:09:15.478Z,62.37
2022-11-18T01:12:09.720Z,62.35
2022-11-18T01:14:37.952Z,61.61
2022-11-18T01:17:07.459Z,61.97
2022-11-18T01:19:37.187Z,61.60
2022-11-18T01:22:05.489Z,62.17
2022-11-18T01:24:34.032Z,63.37
2022-11-18T01:27:02.626Z,63.12
2022-11-18T01:29:30.767Z,61.24
2022-11-18T01:34:48.610Z,63.20
2022-11-18T01:37:19.460Z,63.94
2022-11-18T01:39:50.097Z,62.33
2022-11-18T01:42:18.877Z,62.36
2022-11-18T01:45:05.199Z,63.33
2022-11-18T01:47:35.632Z,63.44
2022-11-18T01:50:06.244Z,62.33
2022-11-18T01:52:35.836Z,61.13
2022-11-18T01:55:06.630Z,62.84
2022-11-18T01:57:35.075Z,63.02
2022-11-18T02:00:05.083Z,62.77
2022-11-18T02:02:34.681Z,62.45
2022-11-18T02:05:04.600Z,62.08
2022-11-18T02:07:35.789Z,61.66
2022-11-18T02:10:06.704Z,62.13
2022-11-18T02:12:35.180Z,61.87
2022-11-18T02:15:03.831Z,62.56
2022-11-18T02:17:38.156Z,61.79
2022-11-18T02:20:28.415Z,62.20
2022-11-18T02:23:14.145Z,62.65
2022-11-18T02:25:49.885Z,62.09
2022-11-18T02:28:26.328Z,62.34
2022-11-18T02:31:00.156Z,62.99
2022-11-18T02:33:31.151Z,62.43
2022-11-18T02:36:04.185Z,63.13
2022-11-18T02:38:33.955Z,61.92
2022-11-18T02:41:05.192Z,62.35
2022-11-18T02:43:35.548Z,61.55
2022-11-18T02:46:07.667Z,61.40
2022-11-18T02:48:39.692Z,60.50
2022-11-18T02:51:09.812Z,60.76
2022-11-18T02:53:39.691Z,60.56
2022-11-18T02:56:08.551Z,63.05
2022-11-18T02:58:36.669Z,61.92
2022-11-18T03:01:06.340Z,62.93
2022-11-18T03:03:35.915Z,62.23
2022-11-18T03:06:08.629Z,60.20
2022-11-18T03:08:39.844Z,60.41
2022-11-18T03:11:13.461Z,60.49
2022-11-18T03:13:45.273Z,62.35
2022-11-18T03:16:19.282Z,62.52
2022-11-18T03:18:51.417Z,61.78
2022-11-18T03:21:22.900Z,61.84
2022-11-18T03:23:56.297Z,61.67
2022-11-18T03:26:30.500Z,62.12
2022-11-18T03:29:01.900Z,62.53
2022-11-18T03:31:35.104Z,60.43
2022-11-18T03:34:05.503Z,61.53
2022-11-18T03:36:35.025Z,61.67
2022-11-18T03:39:04.596Z,61.92
2022-11-18T03:41:36.751Z,60.76
2022-11-18T03:44:07.873Z,61.22
2022-11-18T03:46:40.522Z,61.77
2022-11-18T03:49:10.005Z,62.12
2022-11-18T03:51:42.382Z,61.22
2022-11-18T03:54:13.656Z,60.58
2022-11-18T03:56:43.680Z,61.00
2022-11-18T03:59:14.342Z,62.08
2022-11-18T04:01:46.954Z,62.84
2022-11-18T04:04:15.633Z,61.90
2022-11-18T04:06:47.048Z,61.34
2022-11-18T04:09:23.665Z,62.16
2022-11-18T04:12:04.881Z,60.46
2022-11-18T04:14:33.981Z,59.99
2022-11-18T04:17:06.581Z,61.28
2022-11-18T04:19:34.685Z,60.75
2022-11-18T04:22:02.853Z,61.85
2022-11-18T04:24:30.986Z,60.96
2022-11-18T04:26:59.084Z,59.85
2022-11-18T04:29:27.239Z,60.87
2022-11-18T04:31:55.339Z,61.15
2022-11-18T04:34:24.886Z,60.33
2022-11-18T04:36:52.998Z,60.31
2022-11-18T04:39:21.217Z,61.03
2022-11-18T04:41:58.640Z,62.01
2022-11-18T04:44:27.601Z,61.12
2022-11-18T04:46:56.549Z,61.20
2022-11-18T04:49:33.086Z,61.92
2022-11-18T04:52:03.231Z,61.10
2022-11-18T04:54:31.641Z,61.50
2022-11-18T04:56:59.822Z,61.62
2022-11-18T04:59:28.751Z,60.30
2022-11-18T05:01:59.945Z,61.84
2022-11-18T05:04:31.229Z,61.71
2022-11-18T05:06:59.967Z,61.91
2022-11-18T05:09:31.783Z,62.01
2022-11-18T05:12:18.279Z,62.49
2022-11-18T05:14:50.138Z,60.76
2022-11-18T05:17:19.447Z,61.85
2022-11-18T05:19:48.996Z,60.81
2022-11-18T05:22:17.461Z,62.43
2022-11-18T05:24:45.651Z,61.56
2022-11-18T05:27:14.240Z,61.21
2022-11-18T05:29:42.377Z,62.07
2022-11-18T05:32:10.744Z,62.39
2022-11-18T05:34:38.818Z,64.50
2022-11-18T05:37:08.413Z,62.42
2022-11-18T05:39:36.626Z,62.74
2022-11-18T05:42:22.298Z,62.79
2022-11-18T05:44:57.558Z,61.99
2022-11-18T05:47:26.744Z,63.20
2022-11-18T05:49:54.865Z,61.96
2022-11-18T05:52:24.354Z,64.33
2022-11-18T05:54:52.904Z,62.63
2022-11-18T05:57:21.546Z,63.79
2022-11-18T05:59:49.793Z,62.80
2022-11-18T06:02:20.846Z,63.75
2022-11-18T06:04:50.838Z,63.23
2022-11-18T06:07:20.512Z,62.53
2022-11-18T06:09:53.125Z,62.23
2022-11-18T06:12:22.887Z,61.77
2022-11-18T06:14:53.620Z,64.20
2022-11-18T06:17:24.050Z,63.10
2022-11-18T06:19:52.915Z,62.72
2022-11-18T06:22:21.112Z,63.77
2022-11-18T06:24:50.796Z,62.25
2022-11-18T06:27:19.485Z,64.44
2022-11-18T06:29:47.601Z,62.21
2022-11-18T06:32:15.737Z,63.20
2022-11-18T06:34:43.773Z,62.77
2022-11-18T06:37:15.716Z,63.26
2022-11-18T06:39:43.998Z,62.55
2022-11-18T06:42:34.609Z,63.97
2022-11-18T06:45:02.487Z,62.94
2022-11-18T06:47:32.057Z,61.93
2022-11-18T06:50:00.352Z,62.87
2022-11-18T06:52:29.225Z,62.18
2022-11-18T06:54:57.578Z,63.15
2022-11-18T06:57:27.125Z,62.12
2022-11-18T07:00:00.598Z,63.01
2022-11-18T07:02:32.005Z,61.65
2022-11-18T07:05:00.278Z,61.77
2022-11-18T07:07:28.556Z,62.99
2022-11-18T07:10:15.287Z,63.04
2022-11-18T07:12:53.380Z,63.10
2022-11-18T07:15:21.625Z,63.48
2022-11-18T07:17:50.373Z,62.19
2022-11-18T07:20:18.504Z,61.99
2022-11-18T07:22:46.695Z,62.16
2022-11-18T07:25:15.203Z,61.57
2022-11-18T07:27:43.300Z,61.73
2022-11-18T07:30:13.805Z,61.30
2022-11-18T07:32:42.004Z,62.59
2022-11-18T07:35:10.658Z,60.46
2022-11-18T07:37:38.775Z,61.09
2022-11-18T07:40:07.509Z,60.51
2022-11-18T07:42:42.875Z,59.84
2022-11-18T07:45:25.364Z,60.69
2022-11-18T07:47:53.576Z,60.45
2022-11-18T07:50:21.661Z,59.47
2022-11-18T07:52:49.741Z,58.44
2022-11-18T07:55:17.934Z,62.38
2022-11-18T07:57:46.079Z,61.14
2022-11-18T08:00:14.900Z,59.13
2022-11-18T08:02:44.726Z,60.56
2022-11-18T08:05:17.731Z,59.47
2022-11-18T08:07:46.412Z,59.24
2022-11-18T08:10:14.705Z,59.81
2022-11-18T08:12:42.832Z,59.98
2022-11-18T08:15:11.484Z,61.02
2022-11-18T08:17:39.619Z,59.18
2022-11-18T08:20:10.612Z,60.51
2022-11-18T08:22:38.845Z,59.52
2022-11-18T08:25:07.666Z,58.54
2022-11-18T08:27:35.826Z,60.26
2022-11-18T08:30:04.255Z,59.95
2022-11-18T08:32:33.063Z,58.62
2022-11-18T08:35:01.691Z,58.37
2022-11-18T08:37:32.620Z,60.65
2022-11-18T08:40:00.837Z,58.46
2022-11-18T08:42:34.074Z,59.43
2022-11-18T08:45:04.380Z,60.07
2022-11-18T08:47:32.654Z,60.06
2022-11-18T08:50:00.771Z,58.77
2022-11-18T08:52:28.955Z,58.58
2022-11-18T08:54:58.432Z,58.97
2022-11-18T08:57:26.539Z,60.67
2022-11-18T08:59:54.623Z,61.20
2022-11-18T09:02:23.985Z,60.18
2022-11-18T09:04:52.888Z,60.48
2022-11-18T09:07:21.637Z,60.18
2022-11-18T09:09:50.057Z,60.25
2022-11-18T09:12:43.444Z,60.35
2022-11-18T09:15:14.546Z,59.91
2022-11-18T09:17:43.405Z,60.61
2022-11-18T09:20:12.014Z,59.04
2022-11-18T09:22:40.268Z,59.78
2022-11-18T09:25:09.085Z,61.53
2022-11-18T09:27:37.250Z,61.14
2022-11-18T09:30:05.842Z,60.25
2022-11-18T09:32:35.652Z,60.49
2022-11-18T09:35:03.837Z,61.72
2022-11-18T09:37:32.239Z,60.16
2022-11-18T09:40:00.559Z,61.20
2022-11-18T09:42:35.983Z,61.68
2022-11-18T09:45:13.358Z,60.06
2022-11-18T09:47:44.226Z,61.20
2022-11-18T09:50:49.669Z,60.44
2022-11-18T09:53:45.820Z,61.76
2022-11-18T09:56:16.214Z,61.58
2022-11-18T09:58:45.878Z,62.46
2022-11-18T10:01:15.975Z,61.67
2022-11-18T10:03:45.702Z,61.66
2022-11-18T10:06:23.134Z,61.95
2022-11-18T10:08:59.506Z,62.04
2022-11-18T10:11:30.137Z,62.19
2022-11-18T10:14:02.581Z,63.39
2022-11-18T10:16:36.984Z,63.01
2022-11-18T10:19:13.017Z,63.31
2022-11-18T10:21:49.003Z,63.62
2022-11-18T10:24:20.224Z,62.97
2022-11-18T10:26:52.075Z,63.02
2022-11-18T10:29:20.241Z,64.07
2022-11-18T10:32:01.068Z,63.49
2022-11-18T10:34:32.677Z,63.35
2022-11-18T10:37:02.403Z,63.81
2022-11-18T10:39:30.572Z,63.03
2022-11-18T10:42:01.786Z,62.74
2022-11-18T10:44:34.487Z,63.74
2022-11-18T10:47:21.094Z,63.45
2022-11-18T10:49:51.135Z,63.67
2022-11-18T10:52:19.805Z,64.01
2022-11-18T10:55:06.160Z,64.69
2022-11-18T10:57:36.813Z,63.99
2022-11-18T11:00:05.411Z,65.13
2022-11-18T11:02:35.024Z,64.05
2022-11-18T11:05:05.786Z,64.66
2022-11-18T11:07:35.236Z,65.30
2022-11-18T11:10:18.942Z,64.77
2022-11-18T11:12:50.345Z,64.45
2022-11-18T11:15:20.705Z,64.38
2022-11-18T11:18:12.106Z,64.80
2022-11-18T11:20:41.748Z,64.65
2022-11-18T11:23:10.490Z,64.16
2022-11-18T11:28:32.858Z,65.18
2022-11-18T11:31:07.668Z,65.52
2022-11-18T11:33:40.831Z,66.04
2022-11-18T11:36:15.369Z,66.16
2022-11-18T11:38:58.668Z,65.44
2022-11-18T11:41:31.938Z,65.01
2022-11-18T11:44:16.009Z,64.08
2022-11-18T11:47:09.331Z,66.21
2022-11-18T11:49:46.303Z,65.62
2022-11-18T11:52:21.194Z,65.94
2022-11-18T11:55:00.293Z,65.14
2022-11-18T11:57:39.230Z,65.25
2022-11-18T12:00:11.157Z,65.32
2022-11-18T12:02:50.493Z,64.79
2022-11-18T12:11:32.944Z,65.19
2022-11-18T12:14:04.420Z,63.99
2022-11-18T12:16:36.811Z,63.77
2022-11-18T12:19:10.177Z,64.11
2022-11-18T12:21:54.753Z,64.46
2022-11-18T12:24:31.366Z,65.70
2022-11-18T12:27:00.349Z,64.57
2022-11-18T12:29:32.847Z,64.80
2022-11-18T12:32:02.111Z,64.56
2022-11-18T12:34:32.838Z,65.35
2022-11-18T12:37:15.908Z,65.30
2022-11-18T12:39:50.490Z,65.23
2022-11-18T12:42:54.061Z,65.67
2022-11-18T12:45:40.854Z,65.24
2022-11-18T12:48:27.405Z,66.13
2022-11-18T12:50:57.044Z,65.58
2022-11-18T12:53:37.902Z,63.43
2022-11-18T12:56:22.440Z,64.36
2022-11-18T12:58:51.330Z,64.08
2022-11-18T13:01:20.667Z,65.11
2022-11-18T13:03:48.837Z,64.63
2022-11-18T13:06:21.931Z,65.61
2022-11-18T13:08:52.218Z,65.08
2022-11-18T13:11:39.574Z,64.57
2022-11-18T13:14:25.736Z,65.10
2022-11-18T13:17:11.566Z,64.26
2022-11-18T13:19:39.735Z,64.22
2022-11-18T13:22:34.768Z,64.36
2022-11-18T13:25:03.138Z,64.62
2022-11-18T13:27:41.470Z,65.33
2022-11-18T13:30:12.844Z,64.44
2022-11-18T13:32:44.246Z,65.40
2022-11-18T13:35:14.720Z,65.29
2022-11-18T13:37:53.526Z,65.40
2022-11-18T13:40:22.933Z,65.80
2022-11-18T13:42:52.736Z,65.72
2022-11-18T13:45:21.487Z,65.64
2022-11-18T13:47:54.203Z,65.82
2022-11-18T13:50:26.242Z,65.77
2022-11-18T13:52:59.732Z,66.46
2022-11-18T13:55:29.334Z,65.64
2022-11-18T13:58:02.643Z,65.50
2022-11-18T14:00:33.088Z,66.24
2022-11-18T14:03:03.758Z,65.43
2022-11-18T14:05:32.037Z,65.75
2022-11-18T14:08:01.895Z,66.03
2022-11-18T14:10:41.798Z,66.54
2022-11-18T14:13:20.134Z,66.81
2022-11-18T14:15:48.489Z,66.64
2022-11-18T14:18:19.978Z,66.98
2022-11-18T14:20:51.681Z,66.99
2022-11-18T14:23:20.823Z,66.94
2022-11-18T14:25:48.920Z,67.20
2022-11-18T14:28:24.362Z,67.69
2022-11-18T14:31:03.957Z,66.46
2022-11-18T14:33:32.567Z,66.60
2022-11-18T14:36:01.393Z,67.88
2022-11-18T14:38:52.046Z,67.33
2022-11-18T14:41:44.458Z,67.03
2022-11-18T14:44:15.072Z,66.61
2022-11-18T14:46:44.145Z,66.69
2022-11-18T14:49:14.736Z,65.95
2022-11-18T14:51:42.955Z,65.37
2022-11-18T14:54:13.363Z,66.61
2022-11-18T14:56:41.673Z,66.27
2022-11-18T14:59:13.146Z,66.08
2022-11-18T15:01:43.385Z,66.08
2022-11-18T15:04:11.635Z,65.89
2022-11-18T15:06:40.142Z,66.39
2022-11-18T15:09:09.043Z,66.59
2022-11-18T15:11:37.304Z,66.89
2022-11-18T15:14:05.388Z,67.95
2022-11-18T15:16:34.971Z,67.49
2022-11-18T15:19:06.152Z,67.98
2022-11-18T15:21:34.665Z,68.35
2022-11-18T15:24:02.799Z,68.03
2022-11-18T15:26:35.822Z,68.07
2022-11-18T15:29:04.660Z,67.80
2022-11-18T15:31:32.834Z,68.79
2022-11-18T15:34:06.599Z,69.10
2022-11-18T15:36:36.661Z,69.00
2022-11-18T15:39:04.804Z,68.42
2022-11-18T15:41:33.337Z,68.32
2022-11-18T15:44:02.938Z,67.92
2022-11-18T15:46:33.443Z,68.57
2022-11-18T15:49:02.322Z,68.79
2022-11-18T15:51:31.130Z,67.71
2022-11-18T15:54:00.625Z,67.00
2022-11-18T15:56:30.006Z,68.14
2022-11-18T15:58:58.877Z,68.05
2022-11-18T16:01:27.807Z,68.76
2022-11-18T16:03:56.250Z,67.87
2022-11-18T16:06:24.581Z,67.29
2022-11-18T16:08:58.951Z,68.12
2022-11-18T16:11:47.497Z,68.10
2022-11-18T16:14:17.603Z,66.85
2022-11-18T16:16:46.681Z,67.70
2022-11-18T16:19:18.009Z,67.88
2022-11-18T16:21:47.663Z,67.55
2022-11-18T16:24:17.458Z,66.77
2022-11-18T16:26:47.365Z,67.80
2022-11-18T16:29:17.481Z,66.77
2022-11-18T16:31:50.876Z,67.05
2022-11-18T16:34:20.338Z,66.94
2022-11-18T16:36:49.384Z,66.33
2022-11-18T16:39:23.563Z,66.13
2022-11-18T16:41:53.771Z,65.63
2022-11-18T16:44:23.480Z,67.05
2022-11-18T16:46:54.815Z,66.83
2022-11-18T16:49:23.837Z,67.78
2022-11-18T16:51:53.078Z,66.85
2022-11-18T16:54:22.980Z,66.80
2022-11-18T16:56:51.952Z,67.06
2022-11-18T16:59:22.758Z,67.11
2022-11-18T17:01:51.612Z,66.17
2022-11-18T17:04:19.987Z,66.67
2022-11-18T17:06:48.704Z,65.52
2022-11-18T17:09:19.063Z,65.99
2022-11-18T17:11:48.439Z,66.55
2022-11-18T17:14:16.706Z,67.04
2022-11-18T17:16:46.545Z,66.33
2022-11-18T17:19:15.532Z,66.57
2022-11-18T17:21:43.691Z,66.82
2022-11-18T17:24:15.258Z,66.47
2022-11-18T17:26:43.468Z,66.54
2022-11-18T17:29:12.154Z,66.06
2022-11-18T17:31:41.025Z,67.03
2022-11-18T17:34:13.245Z,66.24
2022-11-18T17:36:41.776Z,65.83
2022-11-18T17:39:10.938Z,65.18
2022-11-18T17:41:56.657Z,64.06
2022-11-18T17:44:24.897Z,63.34
2022-11-18T17:46:53.119Z,62.86
2022-11-18T17:49:22.781Z,64.12
2022-11-18T17:51:51.721Z,64.37
2022-11-18T17:54:21.123Z,63.33
2022-11-18T17:56:50.053Z,63.75
2022-11-18T17:59:18.456Z,63.87
2022-11-18T18:01:47.289Z,64.69
2022-11-18T18:04:20.486Z,64.69
2022-11-18T18:06:53.612Z,64.69
2022-11-18T18:09:28.519Z,64.74
2022-11-18T18:11:59.662Z,65.20
2022-11-18T18:14:26.912Z,65.08
2022-11-18T18:16:55.286Z,65.27
2022-11-18T18:19:24.698Z,65.24
2022-11-18T18:21:54.573Z,65.33
2022-11-18T18:24:23.296Z,65.00
2022-11-18T18:26:51.542Z,64.83
2022-11-18T18:29:19.744Z,64.67
2022-11-18T18:31:48.104Z,63.55
2022-11-18T18:34:16.777Z,63.74
2022-11-18T18:36:45.379Z,63.87
2022-11-18T18:39:15.041Z,64.41
2022-11-18T18:41:45.129Z,64.49
2022-11-18T18:44:18.408Z,63.10
2022-11-18T18:46:46.159Z,63.55
2022-11-18T18:49:14.911Z,63.67
2022-11-18T18:51:43.689Z,63.22
2022-11-18T18:54:12.886Z,63.76
2022-11-18T18:56:42.443Z,63.66
2022-11-18T18:59:42.422Z,63.10
2022-11-18T19:02:13.337Z,62.92
2022-11-18T19:04:42.744Z,62.42
2022-11-18T19:07:11.196Z,63.08
2022-11-18T19:09:39.537Z,62.93
2022-11-18T19:12:25.408Z,62.88
2022-11-18T19:14:58.415Z,62.23
2022-11-18T19:17:27.515Z,62.49
2022-11-18T19:20:13.364Z,62.04
2022-11-18T19:22:41.961Z,62.72
2022-11-18T19:25:11.384Z,62.52
2022-11-18T19:27:41.438Z,63.14
2022-11-18T19:30:12.932Z,63.29
2022-11-18T19:32:42.736Z,62.32
2022-11-18T19:35:11.395Z,62.49
2022-11-18T19:37:39.908Z,62.68
2022-11-18T19:40:10.509Z,63.73
2022-11-18T19:42:43.194Z,62.22
2022-11-18T19:45:16.449Z,63.14
2022-11-18T19:47:44.987Z,62.22
2022-11-18T19:50:13.128Z,62.77
2022-11-18T19:52:41.880Z,61.55
2022-11-18T19:55:11.088Z,62.31
2022-11-18T19:57:40.039Z,63.00
2022-11-18T20:00:09.915Z,62.37
2022-11-18T20:02:40.720Z,62.06
2022-11-18T20:05:26.863Z,62.31
2022-11-18T20:07:56.376Z,61.41
2022-11-18T20:10:24.875Z,61.46
2022-11-18T20:12:53.673Z,61.65
2022-11-18T20:15:22.185Z,60.85
2022-11-18T20:17:52.100Z,61.73
2022-11-18T20:20:20.662Z,61.60
2022-11-18T20:22:48.914Z,62.29
2022-11-18T20:25:17.340Z,61.44
2022-11-18T20:27:46.173Z,61.12
2022-11-18T20:30:14.904Z,62.37
2022-11-18T20:32:43.386Z,61.67
2022-11-18T20:35:13.164Z,62.42
2022-11-18T20:37:42.642Z,60.87
2022-11-18T20:40:11.906Z,60.89
2022-11-18T20:42:59.119Z,60.66
2022-11-18T20:45:27.814Z,60.43
2022-11-18T20:47:56.238Z,61.32
2022-11-18T20:50:26.057Z,61.14
2022-11-18T20:52:54.671Z,60.90
2022-11-18T20:55:22.849Z,61.86
2022-11-18T20:57:51.223Z,61.28
2022-11-18T21:00:22.737Z,61.89
2022-11-18T21:02:51.220Z,61.81
2022-11-18T21:05:19.482Z,61.76
2022-11-18T21:07:50.719Z,60.81
2022-11-18T21:10:19.383Z,61.52
2022-11-18T21:13:01.732Z,61.60
2022-11-18T21:15:30.261Z,62.65
2022-11-18T21:17:58.349Z,62.03
2022-11-18T21:20:44.352Z,62.37
2022-11-18T21:23:14.521Z,62.44
2022-11-18T21:25:43.379Z,62.18
2022-11-18T21:28:11.887Z,61.99
2022-11-18T21:30:40.395Z,61.89
2022-11-18T21:33:08.643Z,60.88
2022-11-18T21:35:36.789Z,59.50
2022-11-18T21:38:05.938Z,60.94
2022-11-18T21:40:35.759Z,60.16
2022-11-18T21:43:04.189Z,61.64
2022-11-18T21:45:32.707Z,60.84
2022-11-18T21:48:01.120Z,62.17
2022-11-18T21:50:29.216Z,63.51
2022-11-18T21:52:57.578Z,63.70
2022-11-18T21:55:25.709Z,63.14
2022-11-18T21:57:57.657Z,62.29
2022-11-18T22:00:29.853Z,63.54
2022-11-18T22:02:58.231Z,64.16
2022-11-18T22:05:27.406Z,64.67
2022-11-18T22:07:55.797Z,65.01
2022-11-18T22:10:24.190Z,64.70
2022-11-18T22:12:52.867Z,64.60
2022-11-18T22:15:22.754Z,66.01
2022-11-18T22:17:51.208Z,66.92
2022-11-18T22:20:19.806Z,66.57
2022-11-18T22:22:48.169Z,65.61
2022-11-18T22:25:16.703Z,65.95
2022-11-18T22:27:45.177Z,65.95
2022-11-18T22:30:13.580Z,64.06
2022-11-18T22:32:43.685Z,63.30
2022-11-18T22:35:12.186Z,63.00
2022-11-18T22:37:40.317Z,63.08
2022-11-18T22:40:10.001Z,62.30
2022-11-18T22:42:55.309Z,62.20
2022-11-18T22:45:23.835Z,62.74
2022-11-18T22:47:53.955Z,62.21
2022-11-18T22:50:22.572Z,62.31
2022-11-18T22:52:51.056Z,62.69
2022-11-18T22:55:19.949Z,62.23
2022-11-18T22:57:48.367Z,62.20
2022-11-18T23:00:18.801Z,62.34
2022-11-18T23:02:47.216Z,62.74
2022-11-18T23:05:17.113Z,62.92
2022-11-18T23:07:45.730Z,61.58
2022-11-18T23:10:14.327Z,61.27
2022-11-18T23:13:00.334Z,60.86
2022-11-18T23:15:28.995Z,61.28
2022-11-18T23:17:57.557Z,61.35
2022-11-18T23:20:27.121Z,60.31
2022-11-18T23:22:55.698Z,60.33
2022-11-18T23:25:24.101Z,61.05
2022-11-18T23:27:54.320Z,60.91
2022-11-18T23:30:23.211Z,61.31
2022-11-18T23:32:54.066Z,61.56
2022-11-18T23:35:22.565Z,62.75
2022-11-18T23:37:52.106Z,62.66
2022-11-18T23:40:20.827Z,62.86
2022-11-18T23:42:49.239Z,63.60
2022-11-18T23:45:17.447Z,63.66
2022-11-18T23:47:45.808Z,64.14
2022-11-18T23:50:14.298Z,64.62
2022-11-18T23:52:43.256Z,63.79
2022-11-18T23:55:13.042Z,63.67
2022-11-18T23:57:41.469Z,64.14
